createdAt,value
2023-05-27T00:00:56.788Z,14.57
2023-05-27T00:03:26.074Z,14.57
2023-05-27T00:05:55.300Z,14.57
2023-05-27T00:08:24.470Z,14.63
2023-05-27T00:10:53.643Z,14.61
2023-05-27T00:13:22.775Z,14.67
2023-05-27T00:15:52.777Z,14.71
2023-05-27T00:18:22.401Z,14.75
2023-05-27T00:20:51.810Z,14.80
2023-05-27T00:23:21.016Z,14.84
2023-05-27T00:25:50.360Z,14.91
2023-05-27T00:28:19.677Z,14.98
2023-05-27T00:30:48.806Z,14.97
2023-05-27T00:33:18.099Z,14.95
2023-05-27T00:35:47.368Z,14.97
2023-05-27T00:38:16.801Z,14.96
2023-05-27T00:40:47.140Z,14.95
2023-05-27T00:43:16.604Z,14.95
2023-05-27T00:45:45.901Z,14.99
2023-05-27T00:48:15.527Z,15.05
2023-05-27T00:50:44.690Z,15.06
2023-05-27T00:53:14.715Z,15.08
2023-05-27T00:55:44.317Z,15.07
2023-05-27T00:58:14.252Z,15.06
2023-05-27T01:00:43.640Z,15.11
2023-05-27T01:03:13.195Z,15.13
2023-05-27T01:05:42.598Z,15.15
2023-05-27T01:08:23.674Z,15.17
2023-05-27T01:10:55.120Z,15.18
2023-05-27T01:13:47.303Z,15.18
2023-05-27T01:16:18.491Z,15.21
2023-05-27T01:18:49.850Z,15.22
2023-05-27T01:21:19.920Z,15.23
2023-05-27T01:23:50.153Z,15.18
2023-05-27T01:26:19.512Z,15.16
2023-05-27T01:28:48.707Z,15.13
2023-05-27T01:31:22.775Z,15.09
2023-05-27T01:34:04.620Z,15.05
2023-05-27T01:36:46.069Z,14.94
2023-05-27T01:39:16.934Z,14.90
2023-05-27T01:41:47.794Z,14.85
2023-05-27T01:44:18.646Z,14.84
2023-05-27T01:46:48.155Z,14.81
2023-05-27T01:49:17.429Z,14.82
2023-05-27T01:51:46.564Z,14.80
2023-05-27T01:54:15.668Z,14.80
2023-05-27T01:56:45.310Z,14.79
2023-05-27T01:59:16.094Z,14.79
2023-05-27T02:01:45.825Z,14.80
2023-05-27T02:04:14.964Z,14.79
2023-05-27T02:06:44.237Z,14.75
2023-05-27T02:09:14.258Z,14.66
2023-05-27T02:11:43.392Z,14.67
2023-05-27T02:14:12.513Z,14.63
2023-05-27T02:16:41.708Z,14.59
2023-05-27T02:19:11.106Z,14.58
2023-05-27T02:21:40.508Z,14.56
2023-05-27T02:24:09.623Z,14.50
2023-05-27T02:26:38.744Z,14.44
2023-05-27T02:29:07.836Z,14.40
2023-05-27T02:31:37.129Z,14.34
2023-05-27T02:34:08.703Z,14.26
2023-05-27T02:36:38.078Z,14.22
2023-05-27T02:39:07.325Z,14.22
2023-05-27T02:41:37.372Z,14.22
2023-05-27T02:44:07.252Z,14.23
2023-05-27T02:46:36.457Z,14.25
2023-05-27T02:49:05.680Z,14.23
2023-05-27T02:51:37.196Z,14.18
2023-05-27T02:54:06.383Z,14.14
2023-05-27T02:56:35.592Z,14.12
2023-05-27T02:59:04.733Z,14.07
2023-05-27T03:01:33.988Z,14.00
2023-05-27T03:04:03.989Z,13.96
2023-05-27T03:06:34.427Z,13.90
2023-05-27T03:09:04.491Z,13.88
2023-05-27T03:11:33.741Z,13.85
2023-05-27T03:14:02.912Z,13.87
2023-05-27T03:16:32.692Z,13.84
2023-05-27T03:19:01.947Z,13.87
2023-05-27T03:21:32.912Z,13.94
2023-05-27T03:24:02.181Z,14.04
2023-05-27T03:26:31.777Z,14.17
2023-05-27T03:29:03.319Z,14.31
2023-05-27T03:31:33.652Z,14.34
2023-05-27T03:34:07.902Z,14.42
2023-05-27T03:36:38.530Z,14.42
2023-05-27T03:39:07.929Z,14.52
2023-05-27T03:41:38.848Z,14.51
2023-05-27T03:44:08.018Z,14.50
2023-05-27T03:46:37.261Z,14.50
2023-05-27T03:49:06.623Z,14.46
2023-05-27T03:51:36.617Z,14.49
2023-05-27T03:54:05.870Z,14.53
2023-05-27T03:56:34.987Z,14.60
2023-05-27T03:59:04.153Z,14.67
2023-05-27T04:01:33.702Z,14.80
2023-05-27T04:04:02.954Z,14.93
2023-05-27T04:06:34.493Z,15.14
2023-05-27T04:09:04.396Z,15.25
2023-05-27T04:11:33.841Z,15.33
2023-05-27T04:14:03.112Z,15.42
2023-05-27T04:16:34.880Z,15.54
2023-05-27T04:19:04.191Z,15.63
2023-05-27T04:21:34.609Z,15.69
2023-05-27T04:24:04.843Z,15.79
2023-05-27T04:26:34.185Z,15.84
2023-05-27T04:29:04.447Z,15.89
2023-05-27T04:31:35.112Z,15.92
2023-05-27T04:34:08.728Z,15.93
2023-05-27T04:36:39.018Z,15.97
2023-05-27T04:39:14.448Z,16.01
2023-05-27T04:41:46.727Z,16.00
2023-05-27T04:44:22.685Z,16.00
2023-05-27T04:46:53.921Z,16.01
2023-05-27T04:49:23.738Z,16.04
2023-05-27T04:51:53.001Z,16.13
2023-05-27T04:54:24.091Z,16.18
2023-05-27T04:56:53.829Z,16.24
2023-05-27T04:59:46.922Z,16.28
2023-05-27T05:02:23.781Z,16.37
2023-05-27T05:05:29.209Z,16.46
2023-05-27T05:07:59.142Z,16.52
2023-05-27T05:10:28.340Z,16.55
2023-05-27T05:12:57.507Z,16.60
2023-05-27T05:15:26.563Z,16.70
2023-05-27T05:17:59.339Z,16.78
2023-05-27T05:20:30.827Z,16.85
2023-05-27T05:23:00.643Z,16.94
2023-05-27T05:25:31.358Z,17.01
2023-05-27T05:28:00.565Z,17.06
2023-05-27T05:30:29.941Z,17.13
2023-05-27T05:33:00.082Z,17.20
2023-05-27T05:35:33.372Z,17.27
2023-05-27T05:38:17.526Z,17.39
2023-05-27T05:42:07.281Z,17.55
2023-05-27T05:44:36.563Z,17.61
2023-05-27T05:47:05.805Z,17.73
2023-05-27T05:49:36.504Z,17.84
2023-05-27T05:52:06.997Z,17.92
2023-05-27T05:54:36.341Z,17.99
2023-05-27T05:57:06.664Z,18.07
2023-05-27T05:59:35.789Z,18.15
2023-05-27T06:02:05.134Z,18.21
2023-05-27T06:04:34.329Z,18.27
2023-05-27T06:07:04.249Z,18.29
2023-05-27T06:09:51.872Z,18.23
2023-05-27T06:12:29.914Z,18.19
2023-05-27T06:14:59.250Z,18.30
2023-05-27T06:17:35.830Z,18.44
2023-05-27T06:20:05.706Z,18.54
2023-05-27T06:22:36.013Z,18.64
2023-05-27T06:25:31.329Z,18.74
2023-05-27T06:28:05.258Z,18.79
2023-05-27T06:30:34.835Z,18.91
2023-05-27T06:33:06.718Z,19.00
2023-05-27T06:35:37.074Z,19.07
2023-05-27T06:38:06.836Z,19.12
2023-05-27T06:40:36.081Z,19.16
2023-05-27T06:43:05.740Z,19.22
2023-05-27T06:46:03.702Z,19.31
2023-05-27T06:48:53.640Z,19.42
2023-05-27T06:51:22.863Z,19.49
2023-05-27T06:53:52.328Z,19.55
2023-05-27T06:56:28.082Z,19.64
2023-05-27T06:59:15.770Z,19.69
2023-05-27T07:01:45.321Z,19.76
2023-05-27T07:04:17.423Z,19.85
2023-05-27T07:06:54.258Z,19.93
2023-05-27T07:09:23.654Z,20.03
2023-05-27T07:11:52.863Z,20.12
2023-05-27T07:14:47.413Z,20.22
2023-05-27T07:17:16.953Z,20.25
2023-05-27T07:19:46.984Z,20.28
2023-05-27T07:22:19.976Z,20.38
2023-05-27T07:24:49.838Z,20.45
2023-05-27T07:27:20.576Z,20.53
2023-05-27T07:29:57.362Z,20.63
2023-05-27T07:32:39.169Z,20.73
2023-05-27T07:35:08.943Z,20.78
2023-05-27T07:37:38.119Z,20.82
2023-05-27T07:40:07.652Z,20.89
2023-05-27T07:42:40.750Z,20.96
2023-05-27T07:45:10.370Z,21.01
2023-05-27T07:47:39.876Z,21.03
2023-05-27T07:50:09.719Z,21.09
2023-05-27T07:52:42.087Z,21.14
2023-05-27T07:55:24.900Z,21.22
2023-05-27T07:57:56.489Z,21.29
2023-05-27T08:00:29.603Z,21.32
2023-05-27T08:02:59.078Z,21.34
2023-05-27T08:05:42.094Z,21.38
2023-05-27T08:08:23.048Z,21.42
2023-05-27T08:11:10.824Z,21.50
2023-05-27T08:14:00.316Z,21.53
2023-05-27T08:16:48.098Z,21.59
2023-05-27T08:19:40.458Z,21.63
2023-05-27T08:22:38.972Z,21.69
2023-05-27T08:25:27.002Z,21.74
2023-05-27T08:28:15.133Z,21.77
2023-05-27T08:30:51.968Z,21.83
2023-05-27T08:33:28.020Z,21.85
2023-05-27T08:35:57.637Z,21.86
2023-05-27T08:38:27.031Z,21.88
2023-05-27T08:41:04.961Z,21.92
2023-05-27T08:43:35.267Z,21.98
2023-05-27T08:46:05.445Z,22.03
2023-05-27T08:48:34.757Z,22.05
2023-05-27T08:51:04.310Z,22.05
2023-05-27T08:53:34.240Z,22.12
2023-05-27T08:56:03.966Z,22.13
2023-05-27T08:58:35.015Z,22.20
2023-05-27T09:01:06.465Z,22.23
2023-05-27T09:03:36.967Z,22.24
2023-05-27T09:06:06.273Z,22.27
2023-05-27T09:08:49.776Z,22.32
2023-05-27T09:11:30.307Z,22.38
2023-05-27T09:13:59.692Z,22.43
2023-05-27T09:16:28.787Z,22.50
2023-05-27T09:18:58.666Z,22.61
2023-05-27T09:21:28.077Z,22.64
2023-05-27T09:23:59.239Z,22.67
2023-05-27T09:26:28.838Z,22.70
2023-05-27T09:29:02.910Z,22.71
2023-05-27T09:31:32.273Z,22.70
2023-05-27T09:34:11.718Z,22.67
2023-05-27T09:36:47.776Z,22.69
2023-05-27T09:39:19.786Z,22.74
2023-05-27T09:41:56.626Z,22.82
2023-05-27T09:44:30.525Z,22.84
2023-05-27T09:47:03.336Z,22.85
2023-05-27T09:49:36.090Z,22.89
2023-05-27T09:52:11.906Z,22.98
2023-05-27T09:54:41.618Z,23.00
2023-05-27T09:57:12.049Z,23.05
2023-05-27T09:59:41.956Z,23.13
2023-05-27T10:02:18.041Z,23.19
2023-05-27T10:04:49.441Z,23.23
2023-05-27T10:07:31.324Z,23.27
2023-05-27T10:10:02.990Z,23.39
2023-05-27T10:12:32.715Z,23.43
2023-05-27T10:15:02.051Z,23.48
2023-05-27T10:17:53.847Z,23.55
2023-05-27T10:20:42.820Z,23.59
2023-05-27T10:23:24.724Z,23.65
2023-05-27T10:26:01.739Z,23.68
2023-05-27T10:28:42.398Z,23.77
2023-05-27T10:31:15.084Z,23.84
2023-05-27T10:33:47.110Z,23.91
2023-05-27T10:36:18.514Z,24.00
2023-05-27T10:39:05.582Z,24.09
2023-05-27T10:41:42.049Z,24.17
2023-05-27T10:44:11.704Z,24.20
2023-05-27T10:46:42.708Z,24.24
2023-05-27T10:49:15.765Z,24.31
2023-05-27T10:51:48.721Z,24.32
2023-05-27T10:54:28.919Z,24.30
2023-05-27T10:56:59.693Z,24.36
2023-05-27T10:59:39.487Z,24.44
2023-05-27T11:02:08.796Z,24.58
2023-05-27T11:04:38.161Z,24.75
2023-05-27T11:07:07.417Z,24.85
2023-05-27T11:09:49.707Z,24.94
2023-05-27T11:12:24.215Z,25.05
2023-05-27T11:14:55.221Z,25.13
2023-05-27T11:17:26.637Z,25.23
2023-05-27T11:19:56.263Z,25.34
2023-05-27T11:22:25.887Z,25.41
2023-05-27T11:25:03.519Z,25.50
2023-05-27T11:27:36.407Z,25.61
2023-05-27T11:30:11.509Z,25.67
2023-05-27T11:32:48.114Z,25.86
2023-05-27T11:35:19.151Z,25.97
2023-05-27T11:37:54.686Z,26.09
2023-05-27T11:40:23.894Z,26.26
2023-05-27T11:42:54.006Z,26.28
2023-05-27T11:45:23.337Z,26.32
2023-05-27T11:47:54.997Z,26.70
2023-05-27T11:50:28.476Z,27.09
2023-05-27T11:53:05.062Z,27.35
2023-05-27T11:55:34.296Z,27.54
2023-05-27T11:58:03.397Z,27.62
2023-05-27T12:00:32.582Z,27.69
2023-05-27T12:03:01.847Z,27.62
2023-05-27T12:05:34.845Z,27.56
2023-05-27T12:08:04.815Z,27.56
2023-05-27T12:10:34.007Z,27.43
2023-05-27T12:13:07.529Z,27.35
2023-05-27T12:15:37.037Z,27.35
2023-05-27T12:18:06.522Z,27.43
2023-05-27T12:20:35.762Z,27.49
2023-05-27T12:23:04.901Z,27.56
2023-05-27T12:25:34.107Z,27.73
2023-05-27T12:28:03.287Z,28.64
2023-05-27T12:30:32.374Z,30.71
2023-05-27T12:33:02.804Z,31.55
2023-05-27T12:35:32.803Z,33.20
2023-05-27T12:38:02.316Z,35.08
2023-05-27T12:40:31.483Z,36.88
2023-05-27T12:43:01.156Z,38.45
2023-05-27T12:45:30.661Z,39.75
2023-05-27T12:48:00.718Z,40.96
2023-05-27T12:50:30.038Z,42.03
2023-05-27T12:53:00.711Z,42.85
2023-05-27T12:55:30.034Z,43.68
2023-05-27T12:57:59.228Z,44.42
2023-05-27T13:00:29.019Z,45.13
2023-05-27T13:02:58.378Z,46.04
2023-05-27T13:05:27.509Z,46.97
2023-05-27T13:08:00.729Z,47.61
2023-05-27T13:10:30.673Z,48.21
2023-05-27T13:13:01.799Z,48.69
2023-05-27T13:15:31.186Z,49.08
2023-05-27T13:18:00.877Z,49.18
2023-05-27T13:20:31.276Z,49.84
2023-05-27T13:23:02.072Z,50.46
2023-05-27T13:25:32.464Z,50.85
2023-05-27T13:28:01.723Z,51.21
2023-05-27T13:30:31.038Z,51.42
2023-05-27T13:33:00.295Z,51.44
2023-05-27T13:35:29.643Z,51.74
2023-05-27T13:38:01.570Z,49.24
2023-05-27T13:40:30.892Z,45.24
2023-05-27T13:42:59.967Z,42.22
2023-05-27T13:45:29.079Z,41.10
2023-05-27T13:47:58.330Z,41.80
2023-05-27T13:50:29.270Z,40.83
2023-05-27T13:52:58.390Z,42.79
2023-05-27T13:55:27.881Z,45.13
2023-05-27T13:57:57.093Z,46.54
2023-05-27T14:00:26.555Z,47.46
2023-05-27T14:02:55.763Z,46.57
2023-05-27T14:05:25.053Z,43.60
2023-05-27T14:07:54.439Z,40.92
2023-05-27T14:10:23.767Z,38.84
2023-05-27T14:12:52.904Z,37.33
2023-05-27T14:15:21.979Z,36.19
2023-05-27T14:17:51.302Z,35.14
2023-05-27T14:20:20.859Z,34.17
2023-05-27T14:22:50.280Z,33.43
2023-05-27T14:25:20.781Z,32.56
2023-05-27T14:27:49.848Z,31.99
2023-05-27T14:30:19.370Z,31.70
2023-05-27T14:32:48.485Z,31.38
2023-05-27T14:35:17.645Z,31.13
2023-05-27T14:37:46.740Z,31.09
2023-05-27T14:40:15.860Z,33.41
2023-05-27T14:42:45.050Z,35.36
2023-05-27T14:45:14.179Z,36.64
2023-05-27T14:47:43.331Z,37.55
2023-05-27T14:50:12.462Z,36.77
2023-05-27T14:52:41.567Z,36.40
2023-05-27T14:55:10.903Z,37.03
2023-05-27T14:57:40.086Z,39.12
2023-05-27T15:00:10.337Z,40.83
2023-05-27T15:02:39.677Z,41.95
2023-05-27T15:05:10.398Z,42.57
2023-05-27T15:07:41.040Z,43.10
2023-05-27T15:10:10.659Z,43.61
2023-05-27T15:12:48.685Z,44.32
2023-05-27T15:15:25.136Z,44.74
2023-05-27T15:17:54.380Z,44.91
2023-05-27T15:20:23.634Z,45.15
2023-05-27T15:22:52.811Z,45.35
2023-05-27T15:25:21.979Z,45.54
2023-05-27T15:27:51.076Z,45.49
2023-05-27T15:30:20.499Z,45.35
2023-05-27T15:32:49.714Z,45.50
2023-05-27T15:35:19.150Z,45.67
2023-05-27T15:37:48.321Z,45.70
2023-05-27T15:40:17.558Z,45.67
2023-05-27T15:42:46.752Z,45.59
2023-05-27T15:45:16.272Z,45.46
2023-05-27T15:47:45.565Z,45.21
2023-05-27T15:50:15.047Z,44.98
2023-05-27T15:52:44.232Z,44.73
2023-05-27T15:55:13.340Z,44.56
2023-05-27T15:57:42.732Z,44.25
2023-05-27T16:00:12.650Z,44.04
2023-05-27T16:02:41.958Z,43.93
2023-05-27T16:05:14.619Z,43.87
2023-05-27T16:07:44.845Z,43.86
2023-05-27T16:10:14.062Z,43.72
2023-05-27T16:12:43.394Z,43.00
2023-05-27T16:15:13.722Z,40.32
2023-05-27T16:17:43.566Z,38.72
2023-05-27T16:20:13.037Z,37.74
2023-05-27T16:22:42.402Z,36.47
2023-05-27T16:25:11.514Z,34.66
2023-05-27T16:27:40.728Z,33.20
2023-05-27T16:30:10.483Z,32.19
2023-05-27T16:32:39.708Z,32.15
2023-05-27T16:35:09.408Z,33.31
2023-05-27T16:37:39.214Z,34.23
2023-05-27T16:40:09.587Z,34.73
2023-05-27T16:42:38.880Z,34.24
2023-05-27T16:45:09.297Z,32.13
2023-05-27T16:47:38.552Z,30.66
2023-05-27T16:50:08.069Z,29.66
2023-05-27T16:52:37.365Z,28.92
2023-05-27T16:55:07.823Z,28.34
2023-05-27T16:57:36.982Z,27.78
2023-05-27T17:00:07.241Z,27.34
2023-05-27T17:02:36.651Z,27.01
2023-05-27T17:05:06.318Z,26.73
2023-05-27T17:07:35.394Z,26.46
2023-05-27T17:10:04.833Z,26.17
2023-05-27T17:12:33.964Z,25.97
2023-05-27T17:15:03.858Z,25.75
2023-05-27T17:17:35.486Z,25.46
2023-05-27T17:20:08.194Z,25.18
2023-05-27T17:22:37.539Z,25.01
2023-05-27T17:25:07.644Z,24.80
2023-05-27T17:27:36.836Z,24.60
2023-05-27T17:30:06.820Z,24.35
2023-05-27T17:32:35.993Z,24.00
2023-05-27T17:35:05.879Z,23.66
2023-05-27T17:37:35.012Z,23.29
2023-05-27T17:40:08.791Z,22.94
2023-05-27T17:42:38.214Z,22.74
2023-05-27T17:45:07.889Z,22.52
2023-05-27T17:47:37.059Z,22.35
2023-05-27T17:50:06.922Z,22.23
2023-05-27T17:52:36.134Z,22.12
2023-05-27T17:55:05.860Z,22.00
2023-05-27T17:57:36.051Z,21.86
2023-05-27T18:00:06.778Z,21.71
2023-05-27T18:02:36.063Z,21.61
2023-05-27T18:05:05.556Z,21.52
2023-05-27T18:07:34.699Z,21.35
2023-05-27T18:10:04.009Z,21.24
2023-05-27T18:12:33.154Z,21.07
2023-05-27T18:15:02.254Z,20.94
2023-05-27T18:17:33.098Z,20.75
2023-05-27T18:20:02.428Z,20.60
2023-05-27T18:22:32.873Z,20.47
2023-05-27T18:25:01.961Z,20.38
2023-05-27T18:27:31.322Z,20.28
2023-05-27T18:30:00.539Z,20.23
2023-05-27T18:32:29.767Z,20.05
2023-05-27T18:35:01.242Z,19.93
2023-05-27T18:37:31.766Z,19.88
2023-05-27T18:40:00.844Z,19.86
2023-05-27T18:42:32.747Z,19.84
2023-05-27T18:45:02.042Z,19.74
2023-05-27T18:47:31.777Z,19.68
2023-05-27T18:50:00.939Z,19.66
2023-05-27T18:52:30.227Z,19.66
2023-05-27T18:54:59.353Z,19.70
2023-05-27T18:57:28.471Z,19.73
2023-05-27T18:59:57.628Z,19.72
2023-05-27T19:02:26.793Z,19.68
2023-05-27T19:04:55.885Z,19.68
2023-05-27T19:07:24.991Z,19.66
2023-05-27T19:09:54.240Z,19.66
2023-05-27T19:12:23.355Z,19.69
2023-05-27T19:14:54.069Z,19.73
2023-05-27T19:17:23.281Z,19.79
2023-05-27T19:19:52.418Z,19.84
2023-05-27T19:22:22.395Z,19.92
2023-05-27T19:24:51.515Z,19.95
2023-05-27T19:27:21.123Z,19.98
2023-05-27T19:29:50.378Z,19.98
2023-05-27T19:32:19.660Z,19.89
2023-05-27T19:34:48.751Z,19.82
2023-05-27T19:37:18.115Z,19.80
2023-05-27T19:39:47.259Z,19.78
2023-05-27T19:42:17.425Z,19.75
2023-05-27T19:44:47.895Z,19.69
2023-05-27T19:47:17.394Z,19.67
2023-05-27T19:49:47.168Z,19.64
2023-05-27T19:52:16.381Z,19.58
2023-05-27T19:54:45.799Z,19.57
2023-05-27T19:57:15.366Z,19.57
2023-05-27T19:59:44.671Z,19.56
2023-05-27T20:02:13.866Z,19.58
2023-05-27T20:04:43.078Z,19.55
2023-05-27T20:07:12.248Z,19.53
2023-05-27T20:09:41.359Z,19.47
2023-05-27T20:12:10.456Z,19.46
2023-05-27T20:14:39.581Z,19.42
2023-05-27T20:19:38.580Z,19.36
2023-05-27T20:22:07.678Z,19.33
2023-05-27T20:24:36.811Z,19.30
2023-05-27T20:27:06.959Z,19.22
2023-05-27T20:29:36.076Z,19.13
2023-05-27T20:32:05.679Z,19.08
2023-05-27T20:34:34.805Z,19.01
2023-05-27T20:37:04.058Z,18.95
2023-05-27T20:39:33.322Z,18.85
2023-05-27T20:42:02.485Z,18.75
2023-05-27T20:44:31.843Z,18.62
2023-05-27T20:47:04.803Z,18.52
2023-05-27T20:49:34.349Z,18.44
2023-05-27T20:52:03.602Z,18.36
2023-05-27T20:54:34.295Z,18.24
2023-05-27T20:57:03.817Z,18.16
2023-05-27T20:59:33.125Z,18.00
2023-05-27T21:02:10.735Z,17.86
2023-05-27T21:04:43.700Z,17.71
2023-05-27T21:07:12.792Z,17.56
2023-05-27T21:09:42.532Z,17.43
2023-05-27T21:12:11.736Z,17.31
2023-05-27T21:14:40.847Z,17.18
2023-05-27T21:17:10.015Z,17.06
2023-05-27T21:19:39.147Z,16.95
2023-05-27T21:22:10.801Z,16.83
2023-05-27T21:24:40.063Z,16.73
2023-05-27T21:27:11.695Z,16.65
2023-05-27T21:29:41.791Z,16.55
2023-05-27T21:32:11.099Z,16.44
2023-05-27T21:34:40.617Z,16.40
2023-05-27T21:37:09.685Z,16.33
2023-05-27T21:39:38.814Z,16.26
2023-05-27T21:44:37.059Z,16.14
2023-05-27T21:47:06.346Z,16.09
2023-05-27T21:49:35.499Z,16.04
2023-05-27T21:52:04.962Z,15.99
2023-05-27T21:54:34.109Z,15.92
2023-05-27T21:57:03.340Z,15.85
2023-05-27T21:59:32.433Z,15.76
2023-05-27T22:02:01.658Z,15.67
2023-05-27T22:04:31.513Z,15.61
2023-05-27T22:07:00.616Z,15.50
2023-05-27T22:09:29.733Z,15.43
2023-05-27T22:11:58.927Z,15.38
2023-05-27T22:14:28.108Z,15.30
2023-05-27T22:16:57.208Z,15.24
2023-05-27T22:19:26.401Z,15.16
2023-05-27T22:21:55.751Z,15.10
2023-05-27T22:24:25.007Z,15.07
2023-05-27T22:26:54.132Z,15.00
2023-05-27T22:29:23.270Z,14.97
2023-05-27T22:31:52.449Z,14.90
2023-05-27T22:34:21.609Z,14.82
2023-05-27T22:36:50.767Z,14.76
2023-05-27T22:39:20.051Z,14.72
2023-05-27T22:41:49.176Z,14.70
2023-05-27T22:44:18.279Z,14.68
2023-05-27T22:46:47.677Z,14.61
2023-05-27T22:49:16.793Z,14.58
2023-05-27T22:51:45.981Z,14.51
2023-05-27T22:54:15.300Z,14.44
2023-05-27T22:56:44.437Z,14.39
2023-05-27T22:59:13.541Z,14.30
2023-05-27T23:01:42.785Z,14.28
2023-05-27T23:04:12.365Z,14.26
2023-05-27T23:06:42.189Z,14.21
2023-05-27T23:09:11.551Z,14.17
2023-05-27T23:11:40.719Z,14.10
2023-05-27T23:14:09.855Z,14.03
2023-05-27T23:16:39.281Z,14.00
2023-05-27T23:19:08.515Z,13.93
2023-05-27T23:21:39.614Z,13.90
2023-05-27T23:24:08.947Z,13.83
2023-05-27T23:26:39.356Z,13.81
2023-05-27T23:29:08.581Z,13.76
2023-05-27T23:31:38.843Z,13.72
2023-05-27T23:34:08.057Z,13.65
2023-05-27T23:36:38.027Z,13.60
2023-05-27T23:39:07.534Z,13.56
2023-05-27T23:41:36.621Z,13.52
2023-05-27T23:44:06.408Z,13.50
2023-05-27T23:46:35.569Z,13.48
2023-05-27T23:49:04.753Z,13.46
2023-05-27T23:51:33.874Z,13.43
2023-05-27T23:54:03.067Z,13.37
2023-05-27T23:56:32.245Z,13.31
2023-05-27T23:59:01.361Z,13.26
